sensor_id;sensor_type;location;lat;lon;timestamp;temperature;humidity
666;DHT22;315;48.738;9.126;2022-12-08T00:01:26;3.10;99.90
666;DHT22;315;48.738;9.126;2022-12-08T00:03:52;3.00;99.90
666;DHT22;315;48.738;9.126;2022-12-08T00:06:27;3.00;99.90
666;DHT22;315;48.738;9.126;2022-12-08T00:11:56;2.90;99.90
666;DHT22;315;48.738;9.126;2022-12-08T00:14:24;2.90;99.90
666;DHT22;315;48.738;9.126;2022-12-08T00:16:50;2.80;99.90
666;DHT22;315;48.738;9.126;2022-12-08T00:19:16;2.80;99.90
666;DHT22;315;48.738;9.126;2022-12-08T00:21:41;2.70;99.90
666;DHT22;315;48.738;9.126;2022-12-08T00:24:07;2.60;99.90
666;DHT22;315;48.738;9.126;2022-12-08T00:26:32;2.60;99.90
666;DHT22;315;48.738;9.126;2022-12-08T00:28:58;2.50;99.90
666;DHT22;315;48.738;9.126;2022-12-08T00:31:24;2.40;99.90
666;DHT22;315;48.738;9.126;2022-12-08T00:33:49;2.40;99.90
666;DHT22;315;48.738;9.126;2022-12-08T00:36:15;2.30;99.90
666;DHT22;315;48.738;9.126;2022-12-08T00:38:41;2.20;99.90
666;DHT22;315;48.738;9.126;2022-12-08T00:41:11;2.20;99.90
666;DHT22;315;48.738;9.126;2022-12-08T00:43:37;2.10;99.90
666;DHT22;315;48.738;9.126;2022-12-08T00:46:03;2.10;99.90
666;DHT22;315;48.738;9.126;2022-12-08T00:48:29;2.10;99.90
666;DHT22;315;48.738;9.126;2022-12-08T00:50:54;2.00;99.90
666;DHT22;315;48.738;9.126;2022-12-08T00:53:20;2.00;99.90
666;DHT22;315;48.738;9.126;2022-12-08T00:55:45;1.90;99.90
666;DHT22;315;48.738;9.126;2022-12-08T00:58:11;1.90;99.90
666;DHT22;315;48.738;9.126;2022-12-08T01:00:39;1.90;99.90
666;DHT22;315;48.738;9.126;2022-12-08T01:03:05;1.90;99.90
666;DHT22;315;48.738;9.126;2022-12-08T01:05:30;1.90;99.90
666;DHT22;315;48.738;9.126;2022-12-08T01:07:56;1.80;99.90
666;DHT22;315;48.738;9.126;2022-12-08T01:10:21;1.80;99.90
666;DHT22;315;48.738;9.126;2022-12-08T01:12:47;1.70;99.90
666;DHT22;315;48.738;9.126;2022-12-08T01:15:12;1.70;99.90
666;DHT22;315;48.738;9.126;2022-12-08T01:17:38;1.70;99.90
666;DHT22;315;48.738;9.126;2022-12-08T01:20:04;1.60;99.90
666;DHT22;315;48.738;9.126;2022-12-08T01:22:30;1.60;99.90
666;DHT22;315;48.738;9.126;2022-12-08T01:24:57;1.60;99.90
666;DHT22;315;48.738;9.126;2022-12-08T01:27:23;1.40;99.90
666;DHT22;315;48.738;9.126;2022-12-08T01:29:48;1.40;99.90
666;DHT22;315;48.738;9.126;2022-12-08T01:32:14;1.40;99.90
666;DHT22;315;48.738;9.126;2022-12-08T01:34:39;1.30;99.90
666;DHT22;315;48.738;9.126;2022-12-08T01:37:05;1.40;99.90
666;DHT22;315;48.738;9.126;2022-12-08T01:39:30;1.30;99.90
666;DHT22;315;48.738;9.126;2022-12-08T01:41:56;1.30;99.90
666;DHT22;315;48.738;9.126;2022-12-08T01:46:47;1.20;99.90
666;DHT22;315;48.738;9.126;2022-12-08T01:49:30;1.30;99.90
666;DHT22;315;48.738;9.126;2022-12-08T01:52:33;1.30;99.90
666;DHT22;315;48.738;9.126;2022-12-08T01:55:09;1.30;99.90
666;DHT22;315;48.738;9.126;2022-12-08T01:57:41;1.30;99.90
666;DHT22;315;48.738;9.126;2022-12-08T02:00:10;1.20;99.90
666;DHT22;315;48.738;9.126;2022-12-08T02:02:58;1.10;99.90
666;DHT22;315;48.738;9.126;2022-12-08T02:05:30;1.10;99.90
666;DHT22;315;48.738;9.126;2022-12-08T02:07:59;1.10;99.90
666;DHT22;315;48.738;9.126;2022-12-08T02:10:28;1.10;99.90
666;DHT22;315;48.738;9.126;2022-12-08T02:12:55;1.10;99.90
666;DHT22;315;48.738;9.126;2022-12-08T02:15:33;1.10;99.90
666;DHT22;315;48.738;9.126;2022-12-08T02:21:02;1.10;99.90
666;DHT22;315;48.738;9.126;2022-12-08T02:24:01;1.10;99.90
666;DHT22;315;48.738;9.126;2022-12-08T02:30:12;1.00;99.90
666;DHT22;315;48.738;9.126;2022-12-08T02:38:07;0.70;99.90
666;DHT22;315;48.738;9.126;2022-12-08T02:43:47;0.60;99.90
666;DHT22;315;48.738;9.126;2022-12-08T02:46:31;0.70;99.90
666;DHT22;315;48.738;9.126;2022-12-08T02:48:58;0.60;99.90
666;DHT22;315;48.738;9.126;2022-12-08T02:51:24;0.70;99.90
666;DHT22;315;48.738;9.126;2022-12-08T02:53:51;0.70;99.90
666;DHT22;315;48.738;9.126;2022-12-08T03:01:55;0.60;99.90
666;DHT22;315;48.738;9.126;2022-12-08T03:04:44;0.70;99.90
666;DHT22;315;48.738;9.126;2022-12-08T03:07:23;0.60;99.90
666;DHT22;315;48.738;9.126;2022-12-08T03:10:15;0.60;99.90
666;DHT22;315;48.738;9.126;2022-12-08T03:12:49;0.60;99.90
666;DHT22;315;48.738;9.126;2022-12-08T03:15:18;0.50;99.90
666;DHT22;315;48.738;9.126;2022-12-08T03:17:55;0.40;99.90
666;DHT22;315;48.738;9.126;2022-12-08T03:20:23;0.40;99.90
666;DHT22;315;48.738;9.126;2022-12-08T03:22:52;0.40;99.90
666;DHT22;315;48.738;9.126;2022-12-08T03:25:21;0.40;99.90
666;DHT22;315;48.738;9.126;2022-12-08T03:27:48;0.40;99.90
666;DHT22;315;48.738;9.126;2022-12-08T03:30:15;0.40;99.90
666;DHT22;315;48.738;9.126;2022-12-08T03:32:55;0.30;99.90
666;DHT22;315;48.738;9.126;2022-12-08T03:35:25;0.20;99.90
666;DHT22;315;48.738;9.126;2022-12-08T03:37:51;0.10;99.90
666;DHT22;315;48.738;9.126;2022-12-08T03:40:18;0.00;99.90
666;DHT22;315;48.738;9.126;2022-12-08T03:42:44;0.00;99.90
666;DHT22;315;48.738;9.126;2022-12-08T03:45:10;0.00;99.90
666;DHT22;315;48.738;9.126;2022-12-08T03:47:36;0.10;99.90
666;DHT22;315;48.738;9.126;2022-12-08T03:50:02;0.10;99.90
666;DHT22;315;48.738;9.126;2022-12-08T03:52:28;0.10;99.90
666;DHT22;315;48.738;9.126;2022-12-08T03:54:53;0.20;99.90
666;DHT22;315;48.738;9.126;2022-12-08T03:57:19;0.20;99.90
666;DHT22;315;48.738;9.126;2022-12-08T03:59:45;0.20;99.90
666;DHT22;315;48.738;9.126;2022-12-08T04:02:11;0.20;99.90
666;DHT22;315;48.738;9.126;2022-12-08T04:04:36;0.10;99.90
666;DHT22;315;48.738;9.126;2022-12-08T04:07:02;0.10;99.90
666;DHT22;315;48.738;9.126;2022-12-08T04:09:27;0.10;99.90
666;DHT22;315;48.738;9.126;2022-12-08T04:11:53;0.10;99.90
666;DHT22;315;48.738;9.126;2022-12-08T04:14:19;0.10;99.90
666;DHT22;315;48.738;9.126;2022-12-08T04:16:44;0.00;99.90
666;DHT22;315;48.738;9.126;2022-12-08T04:19:10;0.00;99.90
666;DHT22;315;48.738;9.126;2022-12-08T04:21:35;0.00;99.90
666;DHT22;315;48.738;9.126;2022-12-08T04:24:01;0.10;99.90
666;DHT22;315;48.738;9.126;2022-12-08T04:26:27;0.10;99.90
666;DHT22;315;48.738;9.126;2022-12-08T04:28:52;0.10;99.90
666;DHT22;315;48.738;9.126;2022-12-08T04:31:18;0.10;99.90
666;DHT22;315;48.738;9.126;2022-12-08T04:33:44;0.10;99.90
666;DHT22;315;48.738;9.126;2022-12-08T04:36:09;0.10;99.90
666;DHT22;315;48.738;9.126;2022-12-08T04:38:35;0.10;99.90
666;DHT22;315;48.738;9.126;2022-12-08T04:41:00;0.10;99.90
666;DHT22;315;48.738;9.126;2022-12-08T04:43:26;0.10;99.90
666;DHT22;315;48.738;9.126;2022-12-08T04:45:52;0.10;99.90
666;DHT22;315;48.738;9.126;2022-12-08T04:48:17;0.00;99.90
666;DHT22;315;48.738;9.126;2022-12-08T04:50:44;0.00;99.90
666;DHT22;315;48.738;9.126;2022-12-08T04:53:11;-0.10;99.90
666;DHT22;315;48.738;9.126;2022-12-08T04:55:40;-0.10;99.90
666;DHT22;315;48.738;9.126;2022-12-08T04:58:06;-0.10;99.90
666;DHT22;315;48.738;9.126;2022-12-08T05:00:32;-0.10;99.90
666;DHT22;315;48.738;9.126;2022-12-08T05:02:57;-0.10;99.90
666;DHT22;315;48.738;9.126;2022-12-08T05:05:23;-0.10;99.90
666;DHT22;315;48.738;9.126;2022-12-08T05:07:49;-0.10;99.90
666;DHT22;315;48.738;9.126;2022-12-08T05:10:14;-0.10;99.90
666;DHT22;315;48.738;9.126;2022-12-08T05:12:40;-0.10;99.90
666;DHT22;315;48.738;9.126;2022-12-08T05:15:06;-0.20;99.90
666;DHT22;315;48.738;9.126;2022-12-08T05:17:31;-0.20;99.90
666;DHT22;315;48.738;9.126;2022-12-08T05:19:57;-0.20;99.90
666;DHT22;315;48.738;9.126;2022-12-08T05:22:22;-0.20;99.90
666;DHT22;315;48.738;9.126;2022-12-08T05:24:48;-0.20;99.90
666;DHT22;315;48.738;9.126;2022-12-08T05:27:14;-0.20;99.90
666;DHT22;315;48.738;9.126;2022-12-08T05:29:39;-0.20;99.90
666;DHT22;315;48.738;9.126;2022-12-08T05:32:05;-0.20;99.90
666;DHT22;315;48.738;9.126;2022-12-08T05:34:30;-0.20;99.90
666;DHT22;315;48.738;9.126;2022-12-08T05:36:56;-0.20;99.90
666;DHT22;315;48.738;9.126;2022-12-08T05:39:21;-0.20;99.90
666;DHT22;315;48.738;9.126;2022-12-08T05:41:47;-0.20;99.90
666;DHT22;315;48.738;9.126;2022-12-08T05:44:12;-0.20;99.90
666;DHT22;315;48.738;9.126;2022-12-08T05:46:38;-0.30;99.90
666;DHT22;315;48.738;9.126;2022-12-08T05:49:04;-0.30;99.90
666;DHT22;315;48.738;9.126;2022-12-08T05:51:29;-0.30;99.90
666;DHT22;315;48.738;9.126;2022-12-08T05:53:55;-0.30;99.90
666;DHT22;315;48.738;9.126;2022-12-08T05:56:22;-0.40;99.90
666;DHT22;315;48.738;9.126;2022-12-08T05:58:48;-0.40;99.90
666;DHT22;315;48.738;9.126;2022-12-08T06:01:29;-0.40;99.90
666;DHT22;315;48.738;9.126;2022-12-08T06:03:57;-0.40;99.90
666;DHT22;315;48.738;9.126;2022-12-08T06:06:23;-0.40;99.90
666;DHT22;315;48.738;9.126;2022-12-08T06:08:49;-0.50;99.90
666;DHT22;315;48.738;9.126;2022-12-08T06:11:23;-0.50;99.90
666;DHT22;315;48.738;9.126;2022-12-08T06:13:49;-0.50;99.90
666;DHT22;315;48.738;9.126;2022-12-08T06:16:15;-0.50;99.90
666;DHT22;315;48.738;9.126;2022-12-08T06:18:41;-0.50;99.90
666;DHT22;315;48.738;9.126;2022-12-08T06:21:09;-0.50;99.90
666;DHT22;315;48.738;9.126;2022-12-08T06:23:35;-0.50;99.90
666;DHT22;315;48.738;9.126;2022-12-08T06:26:10;-0.50;99.90
666;DHT22;315;48.738;9.126;2022-12-08T06:28:36;-0.60;99.90
666;DHT22;315;48.738;9.126;2022-12-08T06:31:10;-0.60;99.90
666;DHT22;315;48.738;9.126;2022-12-08T06:33:36;-0.60;99.90
666;DHT22;315;48.738;9.126;2022-12-08T06:36:03;-0.50;99.90
666;DHT22;315;48.738;9.126;2022-12-08T06:38:29;-0.50;99.90
666;DHT22;315;48.738;9.126;2022-12-08T06:40:55;-0.50;99.90
666;DHT22;315;48.738;9.126;2022-12-08T06:43:22;-0.40;99.90
666;DHT22;315;48.738;9.126;2022-12-08T06:45:47;-0.40;99.90
666;DHT22;315;48.738;9.126;2022-12-08T06:48:13;-0.40;99.90
666;DHT22;315;48.738;9.126;2022-12-08T06:50:39;-0.30;99.90
666;DHT22;315;48.738;9.126;2022-12-08T06:53:04;-0.40;99.90
666;DHT22;315;48.738;9.126;2022-12-08T06:55:30;-0.40;99.90
666;DHT22;315;48.738;9.126;2022-12-08T06:57:55;-0.40;99.90
666;DHT22;315;48.738;9.126;2022-12-08T07:00:21;-0.40;99.90
666;DHT22;315;48.738;9.126;2022-12-08T07:02:47;-0.40;99.90
666;DHT22;315;48.738;9.126;2022-12-08T07:05:13;-0.40;99.90
666;DHT22;315;48.738;9.126;2022-12-08T07:07:39;-0.30;99.90
666;DHT22;315;48.738;9.126;2022-12-08T07:10:05;-0.30;99.90
666;DHT22;315;48.738;9.126;2022-12-08T07:12:31;-0.30;99.90
666;DHT22;315;48.738;9.126;2022-12-08T07:14:56;-0.30;99.90
666;DHT22;315;48.738;9.126;2022-12-08T07:17:22;-0.30;99.90
666;DHT22;315;48.738;9.126;2022-12-08T07:19:48;-0.30;99.90
666;DHT22;315;48.738;9.126;2022-12-08T07:22:13;-0.40;99.90
666;DHT22;315;48.738;9.126;2022-12-08T07:24:39;-0.40;99.90
666;DHT22;315;48.738;9.126;2022-12-08T07:27:04;-0.40;99.90
666;DHT22;315;48.738;9.126;2022-12-08T07:29:30;-0.30;99.90
666;DHT22;315;48.738;9.126;2022-12-08T07:31:55;-0.30;99.90
666;DHT22;315;48.738;9.126;2022-12-08T07:34:21;-0.30;99.90
666;DHT22;315;48.738;9.126;2022-12-08T07:36:46;-0.20;99.90
666;DHT22;315;48.738;9.126;2022-12-08T07:39:12;-0.10;99.90
666;DHT22;315;48.738;9.126;2022-12-08T07:41:37;-0.10;99.90
666;DHT22;315;48.738;9.126;2022-12-08T07:44:03;0.20;99.90
666;DHT22;315;48.738;9.126;2022-12-08T07:46:29;0.90;99.90
666;DHT22;315;48.738;9.126;2022-12-08T07:48:55;1.80;99.90
666;DHT22;315;48.738;9.126;2022-12-08T07:51:21;2.50;99.90
666;DHT22;315;48.738;9.126;2022-12-08T07:53:48;3.10;99.90
666;DHT22;315;48.738;9.126;2022-12-08T07:56:14;4.10;99.90
666;DHT22;315;48.738;9.126;2022-12-08T07:58:40;5.20;99.90
666;DHT22;315;48.738;9.126;2022-12-08T08:01:16;5.70;99.90
666;DHT22;315;48.738;9.126;2022-12-08T08:03:42;6.50;99.90
666;DHT22;315;48.738;9.126;2022-12-08T08:06:07;7.50;99.90
666;DHT22;315;48.738;9.126;2022-12-08T08:08:33;8.40;99.90
666;DHT22;315;48.738;9.126;2022-12-08T08:10:58;8.80;99.90
666;DHT22;315;48.738;9.126;2022-12-08T08:13:24;9.30;99.90
666;DHT22;315;48.738;9.126;2022-12-08T08:15:49;9.90;99.90
666;DHT22;315;48.738;9.126;2022-12-08T08:18:15;10.80;99.90
666;DHT22;315;48.738;9.126;2022-12-08T08:20:40;11.40;99.90
666;DHT22;315;48.738;9.126;2022-12-08T08:23:06;11.90;98.80
666;DHT22;315;48.738;9.126;2022-12-08T08:25:31;11.30;98.00
666;DHT22;315;48.738;9.126;2022-12-08T08:27:57;11.60;98.20
666;DHT22;315;48.738;9.126;2022-12-08T08:30:23;12.40;96.10
666;DHT22;315;48.738;9.126;2022-12-08T08:32:48;13.00;94.50
666;DHT22;315;48.738;9.126;2022-12-08T08:35:14;13.80;92.80
666;DHT22;315;48.738;9.126;2022-12-08T08:37:40;14.40;90.90
666;DHT22;315;48.738;9.126;2022-12-08T08:40:06;14.20;88.60
666;DHT22;315;48.738;9.126;2022-12-08T08:42:32;14.10;85.10
666;DHT22;315;48.738;9.126;2022-12-08T08:44:57;14.60;85.40
666;DHT22;315;48.738;9.126;2022-12-08T08:47:23;15.00;83.00
666;DHT22;315;48.738;9.126;2022-12-08T08:49:48;15.20;79.40
666;DHT22;315;48.738;9.126;2022-12-08T08:52:14;14.30;79.90
666;DHT22;315;48.738;9.126;2022-12-08T08:54:39;13.00;82.40
666;DHT22;315;48.738;9.126;2022-12-08T08:57:05;13.00;86.50
666;DHT22;315;48.738;9.126;2022-12-08T08:59:30;13.10;86.00
666;DHT22;315;48.738;9.126;2022-12-08T09:01:56;12.70;86.40
666;DHT22;315;48.738;9.126;2022-12-08T09:04:22;13.40;83.70
666;DHT22;315;48.738;9.126;2022-12-08T09:06:47;13.80;83.80
666;DHT22;315;48.738;9.126;2022-12-08T09:09:14;14.10;81.50
666;DHT22;315;48.738;9.126;2022-12-08T09:11:41;13.80;80.80
666;DHT22;315;48.738;9.126;2022-12-08T09:14:06;14.00;80.60
666;DHT22;315;48.738;9.126;2022-12-08T09:16:32;13.30;82.70
666;DHT22;315;48.738;9.126;2022-12-08T09:18:57;13.40;81.20
666;DHT22;315;48.738;9.126;2022-12-08T09:21:25;12.50;83.80
666;DHT22;315;48.738;9.126;2022-12-08T09:23:52;12.10;85.90
666;DHT22;315;48.738;9.126;2022-12-08T09:26:18;11.80;86.90
666;DHT22;315;48.738;9.126;2022-12-08T09:28:47;11.20;90.10
666;DHT22;315;48.738;9.126;2022-12-08T09:31:15;11.30;90.90
666;DHT22;315;48.738;9.126;2022-12-08T09:33:41;11.40;89.90
666;DHT22;315;48.738;9.126;2022-12-08T09:36:08;10.90;91.10
666;DHT22;315;48.738;9.126;2022-12-08T09:38:34;10.90;91.90
666;DHT22;315;48.738;9.126;2022-12-08T09:41:01;10.30;93.70
666;DHT22;315;48.738;9.126;2022-12-08T09:46:29;11.90;91.00
666;DHT22;315;48.738;9.126;2022-12-08T09:48:58;12.00;89.40
666;DHT22;315;48.738;9.126;2022-12-08T09:51:26;11.90;87.80
666;DHT22;315;48.738;9.126;2022-12-08T09:54:17;12.90;86.70
666;DHT22;315;48.738;9.126;2022-12-08T09:56:44;12.20;85.00
666;DHT22;315;48.738;9.126;2022-12-08T10:01:53;12.20;86.80
666;DHT22;315;48.738;9.126;2022-12-08T10:04:31;11.90;88.00
666;DHT22;315;48.738;9.126;2022-12-08T10:06:59;12.20;86.80
666;DHT22;315;48.738;9.126;2022-12-08T10:15:46;12.70;85.70
666;DHT22;315;48.738;9.126;2022-12-08T10:17:48;13.00;83.90
666;DHT22;315;48.738;9.126;2022-12-08T10:20:36;14.10;81.70
666;DHT22;315;48.738;9.126;2022-12-08T10:26:00;13.60;79.60
666;DHT22;315;48.738;9.126;2022-12-08T10:28:26;14.20;79.50
666;DHT22;315;48.738;9.126;2022-12-08T10:30:52;14.50;75.50
666;DHT22;315;48.738;9.126;2022-12-08T10:33:20;13.70;77.60
666;DHT22;315;48.738;9.126;2022-12-08T10:35:49;12.80;80.70
666;DHT22;315;48.738;9.126;2022-12-08T10:38:19;12.90;82.50
666;DHT22;315;48.738;9.126;2022-12-08T10:40:46;14.20;78.40
666;DHT22;315;48.738;9.126;2022-12-08T10:43:20;15.70;73.70
666;DHT22;315;48.738;9.126;2022-12-08T10:45:46;15.80;68.50
666;DHT22;315;48.738;9.126;2022-12-08T10:48:19;15.20;69.50
666;DHT22;315;48.738;9.126;2022-12-08T10:50:53;14.50;71.70
666;DHT22;315;48.738;9.126;2022-12-08T10:53:31;15.00;70.80
666;DHT22;315;48.738;9.126;2022-12-08T11:01:21;16.60;64.60
666;DHT22;315;48.738;9.126;2022-12-08T11:03:49;16.20;65.40
666;DHT22;315;48.738;9.126;2022-12-08T11:08:59;17.10;61.60
666;DHT22;315;48.738;9.126;2022-12-08T11:14:15;16.00;61.90
666;DHT22;315;48.738;9.126;2022-12-08T11:16:42;15.80;62.50
666;DHT22;315;48.738;9.126;2022-12-08T11:19:16;16.40;62.70
666;DHT22;315;48.738;9.126;2022-12-08T11:21:43;17.20;59.70
666;DHT22;315;48.738;9.126;2022-12-08T11:26:48;18.80;55.80
666;DHT22;315;48.738;9.126;2022-12-08T11:29:14;20.00;54.30
666;DHT22;315;48.738;9.126;2022-12-08T11:31:57;21.20;51.30
666;DHT22;315;48.738;9.126;2022-12-08T11:34:37;19.70;50.80
666;DHT22;315;48.738;9.126;2022-12-08T11:37:07;20.00;52.00
666;DHT22;315;48.738;9.126;2022-12-08T11:39:40;21.10;49.60
666;DHT22;315;48.738;9.126;2022-12-08T11:42:12;19.10;49.40
666;DHT22;315;48.738;9.126;2022-12-08T11:44:48;17.10;52.40
666;DHT22;315;48.738;9.126;2022-12-08T11:47:23;16.60;54.10
666;DHT22;315;48.738;9.126;2022-12-08T11:49:55;16.60;54.70
666;DHT22;315;48.738;9.126;2022-12-08T11:52:29;15.90;54.80
666;DHT22;315;48.738;9.126;2022-12-08T11:55:02;14.50;58.10
666;DHT22;315;48.738;9.126;2022-12-08T11:57:29;12.40;62.40
666;DHT22;315;48.738;9.126;2022-12-08T11:59:56;12.30;67.10
666;DHT22;315;48.738;9.126;2022-12-08T12:02:27;12.70;65.00
666;DHT22;315;48.738;9.126;2022-12-08T12:10:43;10.40;79.30
666;DHT22;315;48.738;9.126;2022-12-08T12:18:46;9.80;83.80
666;DHT22;315;48.738;9.126;2022-12-08T12:21:22;10.40;83.30
666;DHT22;315;48.738;9.126;2022-12-08T12:26:34;11.50;75.40
666;DHT22;315;48.738;9.126;2022-12-08T12:29:04;12.30;73.40
666;DHT22;315;48.738;9.126;2022-12-08T12:31:35;13.60;69.20
666;DHT22;315;48.738;9.126;2022-12-08T12:37:25;16.10;59.50
666;DHT22;315;48.738;9.126;2022-12-08T12:40:01;17.80;55.80
666;DHT22;315;48.738;9.126;2022-12-08T12:42:47;18.70;52.70
666;DHT22;315;48.738;9.126;2022-12-08T12:55:59;12.40;64.20
666;DHT22;315;48.738;9.126;2022-12-08T13:03:39;13.60;64.30
666;DHT22;315;48.738;9.126;2022-12-08T13:06:05;13.30;62.60
666;DHT22;315;48.738;9.126;2022-12-08T13:08:32;12.00;65.80
666;DHT22;315;48.738;9.126;2022-12-08T13:11:07;10.80;71.60
666;DHT22;315;48.738;9.126;2022-12-08T13:13:35;9.60;78.90
666;DHT22;315;48.738;9.126;2022-12-08T13:16:03;8.80;85.40
666;DHT22;315;48.738;9.126;2022-12-08T13:18:46;8.60;89.70
666;DHT22;315;48.738;9.126;2022-12-08T13:21:15;8.20;91.70
666;DHT22;315;48.738;9.126;2022-12-08T13:23:45;7.70;94.60
666;DHT22;315;48.738;9.126;2022-12-08T13:26:20;7.50;96.20
666;DHT22;315;48.738;9.126;2022-12-08T13:31:44;6.80;98.80
666;DHT22;315;48.738;9.126;2022-12-08T13:34:18;6.40;99.90
666;DHT22;315;48.738;9.126;2022-12-08T13:39:47;5.80;99.90
666;DHT22;315;48.738;9.126;2022-12-08T13:42:34;6.00;99.90
666;DHT22;315;48.738;9.126;2022-12-08T13:47:41;5.90;99.90
666;DHT22;315;48.738;9.126;2022-12-08T13:50:14;5.90;99.90
666;DHT22;315;48.738;9.126;2022-12-08T13:52:50;5.90;99.90
666;DHT22;315;48.738;9.126;2022-12-08T13:55:22;5.90;99.90
666;DHT22;315;48.738;9.126;2022-12-08T13:57:50;5.70;99.90
666;DHT22;315;48.738;9.126;2022-12-08T14:00:20;5.60;99.90
666;DHT22;315;48.738;9.126;2022-12-08T14:02:48;5.40;99.90
666;DHT22;315;48.738;9.126;2022-12-08T14:05:16;5.20;99.90
666;DHT22;315;48.738;9.126;2022-12-08T14:07:42;5.10;99.90
666;DHT22;315;48.738;9.126;2022-12-08T14:10:27;5.00;99.90
666;DHT22;315;48.738;9.126;2022-12-08T14:13:05;4.80;99.90
666;DHT22;315;48.738;9.126;2022-12-08T14:15:35;4.80;99.90
666;DHT22;315;48.738;9.126;2022-12-08T14:18:01;4.80;99.90
666;DHT22;315;48.738;9.126;2022-12-08T14:20:29;4.80;99.90
666;DHT22;315;48.738;9.126;2022-12-08T14:22:55;4.80;99.90
666;DHT22;315;48.738;9.126;2022-12-08T14:25:22;4.80;99.90
666;DHT22;315;48.738;9.126;2022-12-08T14:27:48;4.70;99.90
666;DHT22;315;48.738;9.126;2022-12-08T14:30:20;4.70;99.90
666;DHT22;315;48.738;9.126;2022-12-08T14:32:50;4.60;99.90
666;DHT22;315;48.738;9.126;2022-12-08T14:35:32;4.40;99.90
666;DHT22;315;48.738;9.126;2022-12-08T14:38:00;4.40;99.90
666;DHT22;315;48.738;9.126;2022-12-08T14:40:36;4.50;99.90
666;DHT22;315;48.738;9.126;2022-12-08T14:48:27;4.70;99.90
666;DHT22;315;48.738;9.126;2022-12-08T14:56:19;4.80;99.90
666;DHT22;315;48.738;9.126;2022-12-08T15:01:30;4.60;99.90
666;DHT22;315;48.738;9.126;2022-12-08T15:07:01;4.60;99.90
666;DHT22;315;48.738;9.126;2022-12-08T15:09:49;4.50;99.90
666;DHT22;315;48.738;9.126;2022-12-08T15:12:30;4.50;99.90
666;DHT22;315;48.738;9.126;2022-12-08T15:14:57;4.50;99.90
666;DHT22;315;48.738;9.126;2022-12-08T15:17:39;4.40;99.90
666;DHT22;315;48.738;9.126;2022-12-08T15:20:25;4.50;99.90
666;DHT22;315;48.738;9.126;2022-12-08T15:22:52;4.60;99.90
666;DHT22;315;48.738;9.126;2022-12-08T15:25:18;4.50;99.90
666;DHT22;315;48.738;9.126;2022-12-08T15:27:44;4.50;99.90
666;DHT22;315;48.738;9.126;2022-12-08T15:30:14;4.50;99.90
666;DHT22;315;48.738;9.126;2022-12-08T15:32:40;4.40;99.90
666;DHT22;315;48.738;9.126;2022-12-08T15:35:06;4.40;99.90
666;DHT22;315;48.738;9.126;2022-12-08T15:37:32;4.40;99.90
666;DHT22;315;48.738;9.126;2022-12-08T15:39:57;4.40;99.90
666;DHT22;315;48.738;9.126;2022-12-08T15:42:23;4.40;99.90
666;DHT22;315;48.738;9.126;2022-12-08T15:44:48;4.50;99.90
666;DHT22;315;48.738;9.126;2022-12-08T15:47:20;4.50;99.90
666;DHT22;315;48.738;9.126;2022-12-08T15:49:46;4.50;99.90
666;DHT22;315;48.738;9.126;2022-12-08T15:52:18;4.40;99.90
666;DHT22;315;48.738;9.126;2022-12-08T15:54:44;4.20;99.90
666;DHT22;315;48.738;9.126;2022-12-08T15:57:23;4.20;99.90
666;DHT22;315;48.738;9.126;2022-12-08T15:59:50;4.10;99.90
666;DHT22;315;48.738;9.126;2022-12-08T16:02:16;4.00;99.90
666;DHT22;315;48.738;9.126;2022-12-08T16:04:42;4.00;99.90
666;DHT22;315;48.738;9.126;2022-12-08T16:07:27;4.00;99.90
666;DHT22;315;48.738;9.126;2022-12-08T16:09:54;4.10;99.90
666;DHT22;315;48.738;9.126;2022-12-08T16:12:22;4.10;99.90
666;DHT22;315;48.738;9.126;2022-12-08T16:15:07;4.10;99.90
666;DHT22;315;48.738;9.126;2022-12-08T16:17:33;4.10;99.90
666;DHT22;315;48.738;9.126;2022-12-08T16:20:00;4.10;99.90
666;DHT22;315;48.738;9.126;2022-12-08T16:22:30;4.10;99.90
666;DHT22;315;48.738;9.126;2022-12-08T16:24:56;4.10;99.90
666;DHT22;315;48.738;9.126;2022-12-08T16:27:27;4.10;99.90
666;DHT22;315;48.738;9.126;2022-12-08T16:29:54;4.10;99.90
666;DHT22;315;48.738;9.126;2022-12-08T16:32:20;4.10;99.90
666;DHT22;315;48.738;9.126;2022-12-08T16:34:46;4.10;99.90
666;DHT22;315;48.738;9.126;2022-12-08T16:37:16;4.00;99.90
666;DHT22;315;48.738;9.126;2022-12-08T16:39:42;4.00;99.90
666;DHT22;315;48.738;9.126;2022-12-08T16:42:15;3.90;99.90
666;DHT22;315;48.738;9.126;2022-12-08T16:45:07;3.90;99.90
666;DHT22;315;48.738;9.126;2022-12-08T16:47:35;3.90;99.90
666;DHT22;315;48.738;9.126;2022-12-08T16:50:06;3.90;99.90
666;DHT22;315;48.738;9.126;2022-12-08T16:52:32;3.90;99.90
666;DHT22;315;48.738;9.126;2022-12-08T16:54:58;3.80;99.90
666;DHT22;315;48.738;9.126;2022-12-08T16:57:23;3.80;99.90
666;DHT22;315;48.738;9.126;2022-12-08T16:59:49;3.70;99.90
666;DHT22;315;48.738;9.126;2022-12-08T17:02:14;3.70;99.90
666;DHT22;315;48.738;9.126;2022-12-08T17:04:40;3.60;99.90
666;DHT22;315;48.738;9.126;2022-12-08T17:07:05;3.50;99.90
666;DHT22;315;48.738;9.126;2022-12-08T17:09:31;3.50;99.90
666;DHT22;315;48.738;9.126;2022-12-08T17:11:56;3.40;99.90
666;DHT22;315;48.738;9.126;2022-12-08T17:14:22;3.40;99.90
666;DHT22;315;48.738;9.126;2022-12-08T17:16:47;3.40;99.90
666;DHT22;315;48.738;9.126;2022-12-08T17:19:13;3.40;99.90
666;DHT22;315;48.738;9.126;2022-12-08T17:21:40;3.40;99.90
666;DHT22;315;48.738;9.126;2022-12-08T17:24:05;3.40;99.90
666;DHT22;315;48.738;9.126;2022-12-08T17:26:31;3.40;99.90
666;DHT22;315;48.738;9.126;2022-12-08T17:28:56;3.40;99.90
666;DHT22;315;48.738;9.126;2022-12-08T17:31:22;3.50;99.90
666;DHT22;315;48.738;9.126;2022-12-08T17:33:47;3.50;99.90
666;DHT22;315;48.738;9.126;2022-12-08T17:36:15;3.50;99.90
666;DHT22;315;48.738;9.126;2022-12-08T17:38:41;3.60;99.90
666;DHT22;315;48.738;9.126;2022-12-08T17:41:08;3.60;99.90
666;DHT22;315;48.738;9.126;2022-12-08T17:43:35;3.60;99.90
666;DHT22;315;48.738;9.126;2022-12-08T17:46:01;3.60;99.90
666;DHT22;315;48.738;9.126;2022-12-08T17:48:26;3.70;99.90
666;DHT22;315;48.738;9.126;2022-12-08T17:50:52;3.70;99.90
666;DHT22;315;48.738;9.126;2022-12-08T17:53:18;3.70;99.90
666;DHT22;315;48.738;9.126;2022-12-08T17:55:55;3.80;99.90
666;DHT22;315;48.738;9.126;2022-12-08T17:58:22;3.70;99.90
666;DHT22;315;48.738;9.126;2022-12-08T18:00:48;3.70;99.90
666;DHT22;315;48.738;9.126;2022-12-08T18:03:14;3.80;99.90
666;DHT22;315;48.738;9.126;2022-12-08T18:05:40;3.60;99.90
666;DHT22;315;48.738;9.126;2022-12-08T18:08:05;3.60;99.90
666;DHT22;315;48.738;9.126;2022-12-08T18:10:31;3.70;99.90
666;DHT22;315;48.738;9.126;2022-12-08T18:12:56;3.70;99.90
666;DHT22;315;48.738;9.126;2022-12-08T18:15:23;3.60;99.90
666;DHT22;315;48.738;9.126;2022-12-08T18:17:49;3.60;99.90
666;DHT22;315;48.738;9.126;2022-12-08T18:20:15;3.40;99.90
666;DHT22;315;48.738;9.126;2022-12-08T18:22:41;3.40;99.90
666;DHT22;315;48.738;9.126;2022-12-08T18:25:07;3.40;99.90
666;DHT22;315;48.738;9.126;2022-12-08T18:27:33;3.30;99.90
666;DHT22;315;48.738;9.126;2022-12-08T18:29:59;3.30;99.90
666;DHT22;315;48.738;9.126;2022-12-08T18:32:26;3.40;99.90
666;DHT22;315;48.738;9.126;2022-12-08T18:34:52;3.40;99.90
666;DHT22;315;48.738;9.126;2022-12-08T18:37:17;3.30;99.90
666;DHT22;315;48.738;9.126;2022-12-08T18:39:43;3.30;99.90
666;DHT22;315;48.738;9.126;2022-12-08T18:42:09;3.20;99.90
666;DHT22;315;48.738;9.126;2022-12-08T18:44:50;3.10;99.90